Time;durP1;ratioP1;P1;durP2;ratioP2;P2;SDS_P1;SDS_P2;PMS_P1;PMS_P2;Temp;Humidity;BMP_temperature;BMP_pressure;BME280_temperature;BME280_humidity;BME280_pressure;Samples;Min_cycle;Max_cycle;Signal;HPM_P1;HPM_P2
2021/12/04 00:01:26;;;;;;;2.60;2.40;;;7.80;76.90;;;;;;5055536;28;20052;-87
2021/12/04 00:03:53;;;;;;;2.58;2.28;;;7.80;76.90;;;;;;5038421;28;20477;-89
2021/12/04 00:06:27;;;;;;;2.85;2.38;;;7.80;76.90;;;;;;5054824;28;20063;-87
2021/12/04 00:09:05;;;;;;;2.40;2.20;;;7.80;76.90;;;;;;5022523;28;20471;-87
2021/12/04 00:11:37;;;;;;;2.55;2.35;;;7.80;76.90;;;;;;5023860;28;20035;-87
2021/12/04 00:14:08;;;;;;;2.50;2.30;;;7.80;76.90;;;;;;5055157;28;20033;-87
2021/12/04 00:16:39;;;;;;;2.60;2.40;;;7.80;76.90;;;;;;5040907;28;20453;-87
2021/12/04 00:19:07;;;;;;;2.60;2.40;;;7.80;76.90;;;;;;5048947;28;20033;-89
2021/12/04 00:21:35;;;;;;;2.40;2.20;;;7.80;76.90;;;;;;5060630;28;20040;-87
2021/12/04 00:24:07;;;;;;;2.40;2.20;;;7.80;76.90;;;;;;5038298;28;20029;-86
2021/12/04 00:26:42;;;;;;;2.53;2.33;;;7.80;76.90;;;;;;5055641;28;20044;-88
2021/12/04 00:29:11;;;;;;;;;;;7.80;76.90;;;;;;5055145;28;20039;-86
2021/12/04 00:31:37;;;;;;;2.10;1.90;;;7.80;76.80;;;;;;5037968;28;19905;-90
2021/12/04 00:34:09;;;;;;;2.42;2.22;;;7.80;76.80;;;;;;5039338;28;20029;-86
2021/12/04 00:50:31;;;;;;;2.75;2.42;;;7.80;76.90;;;;;;5054462;28;20061;-87
2021/12/04 00:53:00;;;;;;;2.88;2.38;;;7.80;76.90;;;;;;5036806;28;20489;-87
2021/12/04 00:55:31;;;;;;;2.50;2.30;;;7.80;77.00;;;;;;5054498;28;20096;-87
2021/12/04 00:58:12;;;;;;;2.70;2.38;;;7.80;77.00;;;;;;5039133;28;20120;-87
2021/12/04 01:00:42;;;;;;;2.70;2.22;;;7.80;77.00;;;;;;5037413;28;20064;-88
2021/12/04 01:03:09;;;;;;;3.38;3.05;;;7.80;77.00;;;;;;5037659;28;20555;-87
2021/12/04 01:05:40;;;;;;;2.45;2.22;;;7.80;77.00;;;;;;5057995;28;20048;-92
2021/12/04 01:08:08;;;;;;;2.75;2.50;;;7.80;77.00;;;;;;5038010;28;20128;-88
2021/12/04 01:10:36;;;;;;;2.63;2.30;;;7.80;77.00;;;;;;5021025;28;20044;-87
2021/12/04 01:13:06;;;;;;;2.92;2.35;;;7.80;76.90;;;;;;5054458;28;20036;-87
2021/12/04 01:15:34;;;;;;;2.30;2.10;;;7.80;77.00;;;;;;5037411;28;20025;-88
2021/12/04 01:18:13;;;;;;;2.55;2.33;;;7.80;76.90;;;;;;5038938;28;20032;-88
2021/12/04 01:20:47;;;;;;;2.60;2.40;;;7.90;77.00;;;;;;5039014;28;20037;-88
2021/12/04 01:23:16;;;;;;;2.40;2.20;;;7.90;77.00;;;;;;5054130;28;20036;-88
2021/12/04 01:25:42;;;;;;;2.50;2.30;;;7.80;76.90;;;;;;5037436;28;20024;-87
2021/12/04 01:28:16;;;;;;;2.80;2.60;;;7.80;76.90;;;;;;5053934;28;20029;-87
2021/12/04 01:30:42;;;;;;;2.45;2.25;;;7.80;76.90;;;;;;5053726;28;20029;-87
2021/12/04 01:33:09;;;;;;;3.13;2.65;;;7.90;77.00;;;;;;5053610;28;20078;-87
2021/12/04 01:35:35;;;;;;;2.90;2.60;;;7.80;76.90;;;;;;5053781;28;20032;-87
2021/12/04 01:38:06;;;;;;;3.00;2.70;;;7.90;77.00;;;;;;5054000;28;20029;-87
2021/12/04 01:40:35;;;;;;;2.53;2.28;;;7.90;77.00;;;;;;5037551;28;20040;-87
2021/12/04 01:43:07;;;;;;;2.88;2.40;;;7.80;76.90;;;;;;5037611;28;20037;-87
2021/12/04 01:49:49;;;;;;;2.70;2.33;;;7.80;77.00;;;;;;5035697;28;20124;-88
2021/12/04 01:52:18;;;;;;;2.65;2.33;;;7.90;76.90;;;;;;5038229;28;20025;-87
2021/12/04 01:54:48;;;;;;;2.50;2.30;;;7.80;77.00;;;;;;5036908;28;20029;-87
2021/12/04 01:57:17;;;;;;;2.50;2.30;;;7.80;77.00;;;;;;5036928;28;20128;-87
2021/12/04 01:59:46;;;;;;;2.55;2.33;;;7.80;77.00;;;;;;5037716;28;20074;-87
2021/12/04 02:02:12;;;;;;;3.15;2.70;;;7.90;77.10;;;;;;5037448;28;20028;-87
2021/12/04 02:04:40;;;;;;;2.78;2.42;;;7.80;77.00;;;;;;5040735;28;20037;-87
2021/12/04 02:07:08;;;;;;;3.00;2.70;;;7.80;77.00;;;;;;5055739;28;20021;-87
2021/12/04 02:09:35;;;;;;;3.63;2.83;;;7.80;77.00;;;;;;5044429;28;20056;-87
2021/12/04 02:12:05;;;;;;;3.08;2.63;;;7.90;77.00;;;;;;5044515;28;20029;-88
2021/12/04 02:14:35;;;;;;;3.30;2.65;;;7.90;77.00;;;;;;5050572;28;20017;-87
2021/12/04 02:17:02;;;;;;;2.97;2.58;;;7.90;77.00;;;;;;5041167;28;20432;-88
2021/12/04 02:19:28;;;;;;;3.08;2.75;;;7.90;77.00;;;;;;5041578;28;20438;-92
2021/12/04 02:21:54;;;;;;;2.70;2.40;;;7.90;77.00;;;;;;5040868;28;20032;-90
2021/12/04 02:24:29;;;;;;;3.38;2.85;;;7.90;77.00;;;;;;5057114;28;20382;-88
2021/12/04 02:27:00;;;;;;;3.00;2.70;;;7.90;77.00;;;;;;5041390;28;20450;-89
2021/12/04 02:29:29;;;;;;;2.97;2.67;;;7.90;77.00;;;;;;5041633;28;20074;-88
2021/12/04 02:32:06;;;;;;;3.70;2.90;;;7.90;77.00;;;;;;5040998;28;20025;-89
2021/12/04 02:34:37;;;;;;;3.00;2.70;;;7.90;77.00;;;;;;5040436;28;20036;-88
2021/12/04 02:37:09;;;;;;;2.53;2.33;;;7.90;77.00;;;;;;5010347;28;20446;-88
2021/12/04 02:39:44;;;;;;;3.20;2.70;;;7.90;77.00;;;;;;5041156;28;20037;-88
2021/12/04 02:42:24;;;;;;;4.43;2.80;;;7.90;76.90;;;;;;5023969;28;20037;-87
2021/12/04 02:44:55;;;;;;;3.13;2.72;;;7.90;77.10;;;;;;5040305;28;20035;-88
2021/12/04 02:47:29;;;;;;;3.05;2.75;;;7.90;77.00;;;;;;5025959;28;20036;-88
2021/12/04 02:50:10;;;;;;;2.70;2.47;;;7.90;77.00;;;;;;5057089;28;20044;-87
2021/12/04 02:52:44;;;;;;;3.30;2.83;;;7.90;77.00;;;;;;5040418;28;20028;-88
2021/12/04 02:55:13;;;;;;;3.33;2.80;;;7.90;77.00;;;;;;5040005;28;20020;-89
2021/12/04 02:57:46;;;;;;;3.10;2.80;;;7.90;77.00;;;;;;5056775;28;20024;-87
2021/12/04 03:00:33;;;;;;;3.03;2.35;;;7.90;77.00;;;;;;5042904;28;20039;-90
2021/12/04 03:03:17;;;;;;;3.92;3.00;;;7.90;77.00;;;;;;5027489;28;20036;-89
2021/12/04 03:05:51;;;;;;;2.92;2.47;;;7.90;77.00;;;;;;5041009;28;20055;-90
2021/12/04 03:08:18;;;;;;;2.92;2.40;;;7.90;77.00;;;;;;5040652;28;20036;-89
2021/12/04 03:10:52;;;;;;;2.97;2.47;;;7.90;77.00;;;;;;5040931;28;20029;-89
2021/12/04 03:13:47;;;;;;;3.05;2.45;;;7.90;77.00;;;;;;5041133;28;20036;-89
2021/12/04 03:16:27;;;;;;;2.50;2.30;;;7.90;77.00;;;;;;5025072;28;20053;-89
2021/12/04 03:18:56;;;;;;;2.60;2.35;;;7.90;76.90;;;;;;5039976;28;20036;-89
2021/12/04 03:21:36;;;;;;;3.00;2.70;;;7.90;77.60;;;;;;5044858;28;20079;-89
2021/12/04 03:24:21;;;;;;;2.92;2.20;;;7.90;77.00;;;;;;5028009;28;20047;-89
2021/12/04 03:26:49;;;;;;;2.42;2.22;;;7.90;77.00;;;;;;5039628;28;20021;-89
2021/12/04 03:29:22;;;;;;;2.90;2.42;;;7.90;77.00;;;;;;5039069;28;20078;-88
2021/12/04 03:40:01;;;;;;;2.85;2.50;;;7.90;77.00;;;;;;5056340;28;20064;-89
2021/12/04 03:43:13;;;;;;;2.97;2.67;;;7.90;77.00;;;;;;5056180;28;20120;-90
2021/12/04 03:45:42;;;;;;;2.70;2.42;;;7.90;77.00;;;;;;5039284;28;20060;-89
2021/12/04 03:48:40;;;;;;;2.95;2.33;;;7.90;77.00;;;;;;5039995;28;20024;-89
2021/12/04 03:51:07;;;;;;;2.78;2.20;;;7.90;77.00;;;;;;5056024;28;20052;-89
2021/12/04 03:53:45;;;;;;;2.58;2.33;;;7.90;77.00;;;;;;5039351;28;20053;-89
2021/12/04 03:56:23;;;;;;;2.67;2.35;;;7.90;77.00;;;;;;5038633;28;20033;-90
2021/12/04 03:59:01;;;;;;;3.47;2.53;;;7.90;77.00;;;;;;5039893;28;20029;-89
2021/12/04 04:01:32;;;;;;;2.67;2.33;;;7.90;77.10;;;;;;5038631;28;20057;-88
2021/12/04 04:03:58;;;;;;;2.53;2.33;;;7.90;77.00;;;;;;5055404;28;20080;-89
2021/12/04 04:06:27;;;;;;;2.97;2.38;;;7.90;77.00;;;;;;5039373;28;20025;-89
2021/12/04 04:08:57;;;;;;;2.28;2.08;;;7.90;77.00;;;;;;5054743;28;20094;-88
2021/12/04 04:11:35;;;;;;;2.40;2.10;;;7.90;77.10;;;;;;5054808;28;20469;-88
2021/12/04 04:14:02;;;;;;;2.85;2.38;;;7.90;77.00;;;;;;5038686;28;20041;-89
2021/12/04 04:16:41;;;;;;;2.78;2.30;;;7.90;77.00;;;;;;5055692;28;20024;-89
2021/12/04 04:19:19;;;;;;;2.70;2.15;;;7.90;77.10;;;;;;5038935;28;20198;-89
2021/12/04 04:21:57;;;;;;;3.00;2.15;;;7.90;77.00;;;;;;5038932;28;20066;-89
2021/12/04 04:24:28;;;;;;;2.30;2.10;;;7.90;77.00;;;;;;5038819;28;20060;-89
2021/12/04 04:26:55;;;;;;;2.63;2.20;;;7.90;77.00;;;;;;5038025;28;20029;-89
2021/12/04 04:29:22;;;;;;;2.47;2.28;;;7.90;77.00;;;;;;5043355;28;20025;-89
2021/12/04 04:31:49;;;;;;;2.63;2.30;;;7.90;77.00;;;;;;5043812;28;20096;-89
2021/12/04 04:34:23;;;;;;;2.63;2.20;;;7.90;77.60;;;;;;5055012;28;20021;-89
2021/12/04 05:15:25;;;;;;;2.92;2.33;;;7.90;77.20;;;;;;5037693;28;20151;-89
2021/12/04 05:20:55;;;;;;;3.42;2.70;;;7.90;77.20;;;;;;5054206;28;20041;-89
2021/12/04 05:23:22;;;;;;;3.45;2.50;;;7.90;77.10;;;;;;5037368;28;20029;-90
2021/12/04 05:25:51;;;;;;;3.20;2.45;;;7.90;77.10;;;;;;5037776;28;20025;-89
2021/12/04 05:28:17;;;;;;;3.10;2.72;;;7.90;77.10;;;;;;5036866;28;20118;-89
2021/12/04 05:30:49;;;;;;;4.32;2.65;;;7.90;77.10;;;;;;5055359;28;20025;-92
2021/12/04 05:33:15;;;;;;;3.13;2.60;;;7.90;77.10;;;;;;5037371;28;20037;-89
2021/12/04 05:35:41;;;;;;;3.10;2.35;;;7.90;77.10;;;;;;5053521;28;20029;-88
2021/12/04 05:38:09;;;;;;;3.15;2.30;;;7.90;77.10;;;;;;5046303;28;20099;-88
2021/12/04 05:43:25;;;;;;;4.13;2.83;;;7.90;77.10;;;;;;5044857;28;20040;-89
2021/12/04 05:46:14;;;;;;;3.83;2.70;;;8.00;77.10;;;;;;5043073;28;20028;-88
2021/12/04 05:56:22;;;;;;;3.15;2.70;;;8.00;77.10;;;;;;5058096;28;20028;-89
2021/12/04 05:58:49;;;;;;;3.90;2.78;;;8.00;77.20;;;;;;5040730;28;20036;-89
2021/12/04 06:01:19;;;;;;;3.08;2.60;;;8.00;77.10;;;;;;5040660;28;20485;-88
2021/12/04 06:03:47;;;;;;;3.95;2.90;;;8.00;77.10;;;;;;5025168;28;20029;-90
2021/12/04 06:06:20;;;;;;;4.15;2.80;;;8.00;77.10;;;;;;5040405;28;20045;-89
2021/12/04 06:08:46;;;;;;;3.78;2.50;;;8.00;77.10;;;;;;5024507;28;20037;-88
2021/12/04 06:11:12;;;;;;;3.30;2.55;;;8.00;77.10;;;;;;5040192;28;20048;-89
2021/12/04 06:13:39;;;;;;;4.05;2.83;;;8.00;77.10;;;;;;5040784;28;20036;-88
2021/12/04 06:16:05;;;;;;;3.72;2.80;;;8.00;77.10;;;;;;5040246;28;20112;-88
2021/12/04 06:18:33;;;;;;;3.28;2.53;;;8.00;77.10;;;;;;5056860;28;20033;-89
2021/12/04 06:23:54;;;;;;;4.20;2.70;;;8.00;77.20;;;;;;5043045;28;20064;-89
2021/12/04 06:26:19;;;;;;;3.05;2.40;;;8.00;77.10;;;;;;5040499;28;20036;-89
2021/12/04 06:28:48;;;;;;;3.08;2.55;;;8.00;77.10;;;;;;5040301;28;20036;-90
2021/12/04 06:31:17;;;;;;;4.63;2.70;;;8.00;77.10;;;;;;5057409;28;20167;-89
2021/12/04 06:33:43;;;;;;;4.07;2.97;;;8.00;77.10;;;;;;5040212;28;20052;-88
2021/12/04 06:36:14;;;;;;;3.85;2.60;;;8.00;77.10;;;;;;5039802;28;20389;-88
2021/12/04 06:38:45;;;;;;;3.45;2.70;;;8.00;77.10;;;;;;5056545;28;20488;-88
2021/12/04 06:41:14;;;;;;;3.30;2.50;;;8.00;77.10;;;;;;5057258;28;20116;-88
2021/12/04 06:43:50;;;;;;;3.90;2.58;;;8.00;77.10;;;;;;5041017;28;20017;-89
2021/12/04 06:46:24;;;;;;;3.85;3.08;;;8.00;77.10;;;;;;5042298;28;20462;-88
2021/12/04 06:49:07;;;;;;;3.28;2.50;;;8.00;77.10;;;;;;5025312;28;20037;-90
2021/12/04 06:51:37;;;;;;;2.95;2.47;;;8.00;77.10;;;;;;5040136;28;20033;-88
2021/12/04 06:54:17;;;;;;;3.65;2.55;;;8.00;77.00;;;;;;5040188;28;20116;-88
2021/12/04 06:56:43;;;;;;;2.78;2.40;;;8.00;77.10;;;;;;5041160;28;20029;-88
2021/12/04 06:59:16;;;;;;;3.78;2.80;;;8.00;77.10;;;;;;5040055;28;20152;-89
2021/12/04 07:01:45;;;;;;;4.45;3.10;;;8.00;77.10;;;;;;5057257;28;20033;-89
2021/12/04 07:04:16;;;;;;;3.63;2.72;;;8.00;77.10;;;;;;5056312;28;20049;-88
2021/12/04 07:06:47;;;;;;;3.25;2.70;;;8.00;77.10;;;;;;5024203;28;20091;-89
2021/12/04 07:09:15;;;;;;;4.15;2.53;;;8.00;77.10;;;;;;5040012;28;20035;-89
2021/12/04 07:11:46;;;;;;;4.13;2.67;;;8.00;77.10;;;;;;5057042;28;20021;-88
2021/12/04 07:14:12;;;;;;;4.32;2.95;;;8.00;77.10;;;;;;5039886;28;20029;-88
2021/12/04 07:16:42;;;;;;;4.10;2.78;;;8.00;77.00;;;;;;5056118;28;20036;-89
2021/12/04 07:19:16;;;;;;;3.10;2.60;;;8.00;77.00;;;;;;5055906;28;20067;-89
2021/12/04 07:21:45;;;;;;;3.17;2.55;;;8.00;77.00;;;;;;5039297;28;20035;-91
2021/12/04 07:24:18;;;;;;;4.28;2.95;;;8.00;77.10;;;;;;5039593;28;20040;-90
2021/12/04 07:26:47;;;;;;;3.75;2.83;;;8.00;77.10;;;;;;5035426;28;20032;-90
2021/12/04 07:29:17;;;;;;;4.72;2.70;;;8.00;77.10;;;;;;5056112;28;20113;-88
2021/12/04 07:31:43;;;;;;;4.03;2.95;;;8.00;77.10;;;;;;5056095;28;20032;-88
2021/12/04 07:34:14;;;;;;;3.90;2.88;;;8.00;77.00;;;;;;5039846;28;20442;-88
2021/12/04 07:36:40;;;;;;;4.05;3.13;;;8.00;77.10;;;;;;5022905;28;20500;-88
2021/12/04 07:39:09;;;;;;;3.88;2.83;;;8.00;77.00;;;;;;5055376;28;20029;-88
2021/12/04 07:41:47;;;;;;;4.47;3.15;;;8.00;77.10;;;;;;5039737;28;20025;-88
2021/12/04 07:44:15;;;;;;;3.50;2.60;;;8.10;77.10;;;;;;5025341;28;20029;-89
2021/12/04 07:46:41;;;;;;;4.05;2.97;;;8.00;77.00;;;;;;5055697;28;20023;-88
2021/12/04 07:49:10;;;;;;;4.93;2.97;;;8.00;77.10;;;;;;5055162;28;20047;-86
2021/12/04 07:51:39;;;;;;;4.72;3.30;;;8.10;77.10;;;;;;5055704;28;20487;-83
2021/12/04 07:54:06;;;;;;;3.80;2.90;;;8.00;77.00;;;;;;5039732;28;20032;-87
2021/12/04 07:56:32;;;;;;;4.85;3.17;;;8.10;77.10;;;;;;5040772;28;20071;-87
2021/12/04 07:59:09;;;;;;;4.00;3.00;;;8.00;77.00;;;;;;5056055;28;20087;-87
2021/12/04 08:01:40;;;;;;;3.72;2.65;;;8.00;77.10;;;;;;5056160;28;20039;-87
2021/12/04 08:04:06;;;;;;;4.00;2.67;;;8.10;77.10;;;;;;5038776;28;20102;-87
2021/12/04 08:06:34;;;;;;;5.05;3.50;;;8.00;77.10;;;;;;5038253;28;20041;-88
2021/12/04 08:09:03;;;;;;;4.18;2.88;;;8.10;77.10;;;;;;5055350;28;20087;-87
2021/12/04 08:15:37;;;;;;;3.58;2.55;;;8.10;77.30;;;;;;5056328;28;20481;-87
2021/12/04 08:18:05;;;;;;;3.65;2.67;;;8.00;77.10;;;;;;5038387;28;20040;-87
2021/12/04 08:20:31;;;;;;;4.95;3.10;;;8.00;77.10;;;;;;5038605;28;20031;-88
2021/12/04 08:27:39;;;;;;;3.83;2.75;;;8.00;77.20;;;;;;5056402;28;20044;-87
2021/12/04 08:30:09;;;;;;;4.60;3.00;;;8.00;77.20;;;;;;5058358;28;20033;-89
2021/12/04 08:32:53;;;;;;;;;;;;;;;;;;;;;
2021/12/04 08:39:24;;;;;;;4.13;2.60;;;8.00;77.40;;;;;;5055642;28;20063;-88
2021/12/04 08:57:22;;;;;;;3.42;2.50;;;7.90;77.10;;;;;;5054537;28;19911;-88
2021/12/04 08:59:47;;;;;;;4.00;2.92;;;7.90;77.20;;;;;;5037534;28;20037;-85
2021/12/04 09:02:14;;;;;;;2.97;2.58;;;7.90;77.40;;;;;;5001655;28;20033;-85
2021/12/04 09:04:40;;;;;;;4.80;2.70;;;8.00;77.50;;;;;;5037155;28;20056;-86
2021/12/04 09:07:09;;;;;;;4.47;3.08;;;8.00;77.50;;;;;;5021182;28;20045;-88
2021/12/04 09:09:35;;;;;;;4.00;2.67;;;8.00;77.50;;;;;;5021168;28;20033;-86
2021/12/04 09:12:05;;;;;;;3.85;2.63;;;8.00;77.40;;;;;;5036664;28;20531;-87
2021/12/04 09:14:33;;;;;;;4.03;2.78;;;8.10;77.40;;;;;;5021553;28;20025;-89
2021/12/04 09:17:05;;;;;;;4.72;3.15;;;8.10;77.40;;;;;;5020814;28;20021;-89
2021/12/04 09:19:31;;;;;;;4.90;3.28;;;8.10;78.00;;;;;;5037700;28;20032;-89
2021/12/04 09:21:57;;;;;;;5.45;3.50;;;8.10;77.40;;;;;;5053969;28;20025;-90
2021/12/04 09:24:36;;;;;;;5.20;3.40;;;8.10;77.40;;;;;;5036810;28;20105;-87
2021/12/04 10:04:29;;;;;;;5.10;3.55;;;8.20;77.30;;;;;;5037243;28;20084;-84
2021/12/04 10:16:17;;;;;;;5.20;3.42;;;8.20;77.30;;;;;;5053982;28;20033;-84
2021/12/04 10:23:48;;;;;;;5.38;3.53;;;8.30;77.40;;;;;;5053182;28;20044;-83
2021/12/04 10:34:54;;;;;;;6.05;3.97;;;8.30;77.30;;;;;;5056603;28;20025;-86
2021/12/04 10:37:27;;;;;;;5.05;3.78;;;8.30;77.30;;;;;;5040139;28;20378;-85
2021/12/04 10:39:55;;;;;;;5.63;4.00;;;8.30;77.30;;;;;;5040879;28;20042;-85
2021/12/04 10:42:25;;;;;;;6.97;4.30;;;8.30;77.30;;;;;;5039339;28;20120;-85
2021/12/04 10:44:54;;;;;;;5.68;4.07;;;8.40;77.30;;;;;;5023295;28;20043;-84
2021/12/04 10:47:27;;;;;;;7.32;4.25;;;8.40;77.30;;;;;;5039776;28;20033;-91
2021/12/04 10:58:24;;;;;;;6.63;4.57;;;8.40;77.90;;;;;;5056740;28;20044;-85
2021/12/04 11:01:19;;;;;;;7.60;4.38;;;8.50;78.50;;;;;;5056880;28;20033;-87
2021/12/04 11:40:37;;;;;;;7.97;4.85;;;8.60;77.60;;;;;;5032939;28;20056;-84
2021/12/04 11:43:15;;;;;;;7.40;4.80;;;8.60;77.60;;;;;;5055592;28;20025;-84
2021/12/04 11:48:42;;;;;;;6.07;4.25;;;8.60;77.60;;;;;;5055078;28;20037;-85
2021/12/04 11:51:23;;;;;;;7.18;4.85;;;8.60;77.70;;;;;;5038733;28;20060;-84
2021/12/04 11:53:52;;;;;;;7.13;4.82;;;8.60;77.60;;;;;;5055746;28;20021;-85
2021/12/04 11:56:25;;;;;;;6.72;4.82;;;8.60;77.50;;;;;;5038824;28;20108;-90
2021/12/04 11:58:51;;;;;;;7.43;4.63;;;8.60;78.20;;;;;;5054732;28;20033;-85
2021/12/04 12:01:20;;;;;;;6.40;4.30;;;8.70;77.60;;;;;;5038928;28;20029;-85
2021/12/04 12:03:56;;;;;;;6.85;4.15;;;8.70;77.50;;;;;;5037992;28;20036;-85
2021/12/04 12:06:31;;;;;;;7.03;4.50;;;8.70;77.60;;;;;;5054308;28;20055;-84
2021/12/04 12:09:06;;;;;;;7.82;4.47;;;8.70;77.50;;;;;;5056533;28;20078;-85
2021/12/04 12:11:32;;;;;;;6.43;4.40;;;8.70;77.50;;;;;;5038315;28;20029;-85
2021/12/04 12:14:04;;;;;;;6.95;4.43;;;8.70;77.40;;;;;;5038634;28;20520;-85
2021/12/04 12:16:37;;;;;;;6.13;4.47;;;8.70;77.40;;;;;;5055097;28;20037;-85
2021/12/04 12:19:10;;;;;;;5.75;4.05;;;8.70;77.40;;;;;;5054477;28;20531;-86
2021/12/04 12:27:21;;;;;;;;;;;8.80;77.50;;;;;;5055399;28;20028;-85
2021/12/04 12:33:23;;;;;;;5.80;3.92;;;8.70;77.30;;;;;;5017490;28;20043;-84
2021/12/04 12:38:32;;;;;;;6.00;3.90;;;8.70;78.10;;;;;;5055764;28;20087;-85
2021/12/04 12:41:27;;;;;;;5.90;4.13;;;8.70;77.40;;;;;;5037481;28;20501;-84
2021/12/04 12:44:07;;;;;;;6.25;4.30;;;8.70;77.50;;;;;;5044963;28;20041;-85
2021/12/04 12:46:51;;;;;;;6.03;4.40;;;8.70;77.40;;;;;;5037473;28;20056;-88
2021/12/04 12:49:17;;;;;;;6.55;4.30;;;8.70;77.40;;;;;;5036936;28;20037;-86
2021/12/04 12:52:03;;;;;;;6.18;4.18;;;8.80;77.40;;;;;;5054926;28;20173;-85
2021/12/04 12:54:56;;;;;;;6.55;4.22;;;8.80;77.50;;;;;;5030764;28;20040;-85
2021/12/04 12:57:26;;;;;;;6.03;4.20;;;8.80;77.50;;;;;;5052506;28;20041;-88
2021/12/04 13:14:14;;;;;;;5.45;3.83;;;8.80;77.30;;;;;;5054559;28;20031;-87
2021/12/04 13:16:43;;;;;;;5.57;4.18;;;8.80;77.40;;;;;;5036916;28;20033;-85
2021/12/04 13:19:13;;;;;;;6.53;4.30;;;8.80;77.30;;;;;;5053403;28;20033;-87
2021/12/04 13:21:42;;;;;;;6.35;4.88;;;8.80;77.30;;;;;;5053641;28;20052;-85
2021/12/04 13:24:12;;;;;;;4.35;3.45;;;8.80;77.30;;;;;;5054453;28;20029;-87
2021/12/04 13:26:42;;;;;;;5.22;3.92;;;8.80;77.30;;;;;;5054107;28;20036;-85
2021/12/04 13:29:09;;;;;;;6.32;4.28;;;8.80;77.30;;;;;;5054574;28;20029;-84
2021/12/04 13:31:39;;;;;;;6.30;4.30;;;8.80;77.30;;;;;;5037135;28;20025;-84
2021/12/04 13:34:12;;;;;;;5.75;4.30;;;8.80;77.30;;;;;;5053724;28;20036;-86
2021/12/04 13:36:38;;;;;;;6.25;4.07;;;8.90;77.30;;;;;;5036584;28;20036;-83
2021/12/04 13:39:10;;;;;;;6.00;4.60;;;8.80;77.20;;;;;;5053177;28;20029;-85
2021/12/04 13:41:38;;;;;;;5.20;4.00;;;8.90;77.30;;;;;;5037021;28;20456;-86
2021/12/04 13:44:07;;;;;;;5.13;4.03;;;8.90;77.30;;;;;;5053734;28;20021;-85
2021/12/04 13:46:45;;;;;;;5.47;3.80;;;8.90;77.90;;;;;;5036470;28;20029;-87
2021/12/04 13:49:13;;;;;;;5.50;4.30;;;8.90;77.30;;;;;;5053725;28;20029;-86
2021/12/04 13:51:39;;;;;;;5.43;3.55;;;8.80;77.20;;;;;;5052702;28;20025;-85
2021/12/04 13:54:06;;;;;;;5.97;4.72;;;8.90;77.20;;;;;;5054451;28;20060;-88
2021/12/04 13:56:33;;;;;;;5.35;4.00;;;8.90;77.20;;;;;;5036864;28;20059;-86
2021/12/04 13:59:03;;;;;;;5.03;3.92;;;8.90;77.20;;;;;;5038133;28;20055;-84
2021/12/04 14:01:36;;;;;;;6.07;3.75;;;8.90;77.20;;;;;;5024131;28;20043;-85
2021/12/04 14:04:03;;;;;;;5.43;3.72;;;8.90;77.20;;;;;;5058341;28;20033;-85
2021/12/04 14:06:30;;;;;;;4.55;3.45;;;8.90;77.10;;;;;;5040492;28;20037;-86
2021/12/04 14:09:07;;;;;;;5.05;4.03;;;8.90;77.10;;;;;;5023858;28;20037;-85
2021/12/04 14:11:39;;;;;;;4.57;3.65;;;8.90;77.20;;;;;;5024005;28;20025;-85
2021/12/04 14:14:24;;;;;;;5.15;3.80;;;8.90;77.10;;;;;;5054215;28;20072;-85
2021/12/04 14:16:53;;;;;;;6.35;4.38;;;8.90;77.20;;;;;;5058427;28;20108;-85
2021/12/04 14:19:22;;;;;;;4.80;3.67;;;8.90;77.10;;;;;;5040280;28;20462;-88
2021/12/04 14:22:00;;;;;;;4.70;3.40;;;8.90;77.10;;;;;;5039969;28;20033;-86
2021/12/04 14:24:31;;;;;;;4.95;3.88;;;8.90;77.10;;;;;;5056986;28;20032;-85
2021/12/04 14:27:00;;;;;;;4.25;3.25;;;8.90;77.10;;;;;;5057352;28;20033;-85
2021/12/04 14:29:32;;;;;;;5.28;3.42;;;8.90;77.10;;;;;;5057280;28;20068;-85
2021/12/04 14:31:58;;;;;;;4.38;3.53;;;8.90;77.10;;;;;;5057777;28;20063;-84
2021/12/04 14:34:26;;;;;;;5.22;4.05;;;8.90;77.10;;;;;;5023435;28;20029;-85
2021/12/04 14:37:14;;;;;;;4.95;3.83;;;8.90;77.10;;;;;;5039769;28;20469;-85
2021/12/04 14:39:45;;;;;;;5.53;3.65;;;8.90;77.90;;;;;;5057276;28;20070;-85
2021/12/04 14:42:21;;;;;;;5.03;3.33;;;8.90;77.70;;;;;;5056452;28;20465;-86
2021/12/04 14:45:12;;;;;;;4.88;3.78;;;8.90;77.10;;;;;;5056571;28;20089;-87
2021/12/04 14:47:51;;;;;;;5.13;3.67;;;8.90;77.20;;;;;;5027948;28;20033;-91
2021/12/04 14:50:19;;;;;;;4.97;3.75;;;8.90;77.10;;;;;;5056649;28;20029;-90
2021/12/04 14:52:55;;;;;;;5.50;4.10;;;8.90;77.10;;;;;;5039265;28;20032;-89
2021/12/04 14:55:28;;;;;;;5.45;3.80;;;8.90;77.20;;;;;;5039440;28;20067;-86
2021/12/04 14:57:55;;;;;;;5.07;3.67;;;8.90;77.10;;;;;;5057250;28;20056;-83
2021/12/04 15:00:22;;;;;;;5.30;3.97;;;8.90;77.10;;;;;;5055786;28;20040;-87
2021/12/04 15:03:00;;;;;;;5.53;4.00;;;9.00;77.10;;;;;;5055430;28;20025;-88
2021/12/04 15:05:26;;;;;;;5.07;3.58;;;8.90;77.10;;;;;;5038732;28;20083;-88
2021/12/04 15:08:20;;;;;;;4.50;3.63;;;8.90;77.00;;;;;;5037989;28;20041;-83
2021/12/04 15:10:58;;;;;;;4.88;3.83;;;9.00;77.20;;;;;;5036570;28;20118;-88
2021/12/04 15:13:29;;;;;;;5.05;3.83;;;9.00;77.10;;;;;;5039101;28;20029;-87
2021/12/04 15:16:00;;;;;;;4.47;3.47;;;8.90;77.00;;;;;;5039294;28;20029;-85
2021/12/04 15:18:32;;;;;;;5.60;3.70;;;9.00;77.10;;;;;;5038950;28;20435;-86
2021/12/04 15:21:11;;;;;;;4.97;3.47;;;9.00;77.10;;;;;;5056336;28;20035;-86
2021/12/04 15:23:39;;;;;;;4.60;3.58;;;9.00;77.10;;;;;;5055247;28;20036;-85
2021/12/04 15:26:15;;;;;;;4.68;3.67;;;9.00;77.10;;;;;;5038967;28;20042;-84
2021/12/04 15:28:46;;;;;;;4.45;3.35;;;9.00;77.20;;;;;;5039382;28;20029;-85
2021/12/04 15:31:12;;;;;;;5.22;3.65;;;9.00;77.10;;;;;;5056319;28;20021;-85
2021/12/04 15:33:41;;;;;;;5.72;4.47;;;9.00;77.10;;;;;;5038728;28;20396;-87
2021/12/04 15:36:18;;;;;;;5.07;3.85;;;8.90;77.00;;;;;;5038704;28;20032;-86
2021/12/04 15:38:50;;;;;;;4.82;3.75;;;9.00;77.10;;;;;;5055402;28;20040;-85
2021/12/04 15:41:42;;;;;;;5.00;3.70;;;9.00;77.00;;;;;;5038853;28;20068;-84
2021/12/04 15:44:54;;;;;;;5.03;3.63;;;9.00;77.10;;;;;;5038725;28;20033;-84
2021/12/04 15:47:38;;;;;;;4.97;3.55;;;9.00;77.00;;;;;;5051716;28;20039;-85
2021/12/04 15:50:42;;;;;;;4.55;3.47;;;9.00;77.10;;;;;;5038036;28;20036;-85
2021/12/04 15:53:12;;;;;;;4.85;3.75;;;9.00;77.00;;;;;;5055337;28;20029;-85
2021/12/04 15:55:46;;;;;;;4.65;3.67;;;8.90;77.00;;;;;;5054577;28;20096;-84
2021/12/04 15:58:15;;;;;;;4.47;3.33;;;9.00;77.20;;;;;;5054996;28;20116;-84
2021/12/04 16:00:54;;;;;;;4.85;3.70;;;8.90;77.10;;;;;;5054440;28;20458;-85
2021/12/04 16:03:22;;;;;;;4.97;4.00;;;9.00;77.20;;;;;;5055031;28;20064;-86
2021/12/04 16:05:55;;;;;;;5.00;3.30;;;9.00;77.10;;;;;;5054824;28;20399;-85
2021/12/04 16:08:25;;;;;;;5.22;3.85;;;9.00;77.20;;;;;;5037998;28;20053;-85
2021/12/04 16:10:52;;;;;;;5.22;3.72;;;9.00;77.10;;;;;;5055243;28;20078;-87
2021/12/04 16:13:31;;;;;;;5.07;4.20;;;9.00;77.20;;;;;;5021068;28;20075;-87
2021/12/04 16:15:59;;;;;;;5.15;4.13;;;9.00;77.20;;;;;;5037868;28;20060;-87
2021/12/04 16:18:26;;;;;;;4.70;3.72;;;9.00;77.10;;;;;;5054672;28;20032;-86
2021/12/04 16:20:52;;;;;;;6.40;4.68;;;9.00;77.10;;;;;;5021369;28;20120;-86
2021/12/04 16:23:18;;;;;;;4.78;4.13;;;9.00;77.10;;;;;;5037005;28;20021;-86
2021/12/04 16:25:46;;;;;;;6.03;4.07;;;9.00;77.10;;;;;;5054259;28;20116;-86
2021/12/04 16:33:36;;;;;;;;;;;9.00;77.10;;;;;;5056323;28;20025;-89
2021/12/04 16:38:28;;;;;;;5.55;3.90;;;9.00;77.00;;;;;;5037321;28;20040;-86
2021/12/04 16:40:56;;;;;;;5.32;3.90;;;9.00;77.20;;;;;;5054136;28;20186;-85
2021/12/04 16:43:34;;;;;;;5.13;3.35;;;9.00;77.20;;;;;;5054198;28;20338;-86
2021/12/04 16:46:10;;;;;;;5.18;3.90;;;9.00;77.20;;;;;;5053638;28;20053;-85
2021/12/04 16:48:39;;;;;;;5.43;3.53;;;8.90;77.10;;;;;;5038532;28;20056;-87
2021/12/04 16:59:03;;;;;;;5.28;3.60;;;9.00;77.10;;;;;;5038537;28;20047;-86
2021/12/04 17:01:31;;;;;;;5.53;3.60;;;9.00;77.20;;;;;;5038279;28;20075;-90
2021/12/04 17:03:57;;;;;;;5.30;3.55;;;9.00;77.10;;;;;;5037531;28;20378;-94
2021/12/04 17:06:23;;;;;;;4.88;3.47;;;9.00;77.10;;;;;;5053688;28;20053;-88
2021/12/04 17:08:50;;;;;;;4.63;3.30;;;9.00;77.20;;;;;;5054672;28;20478;-87
2021/12/04 17:11:16;;;;;;;5.03;3.30;;;9.00;77.10;;;;;;5053580;28;20083;-85
2021/12/04 17:13:47;;;;;;;5.25;3.55;;;9.00;77.10;;;;;;5037057;28;20029;-85
2021/12/04 17:16:14;;;;;;;4.60;3.17;;;9.00;77.10;;;;;;5037005;28;20098;-88
2021/12/04 17:18:46;;;;;;;4.63;3.28;;;9.00;77.10;;;;;;5036631;28;20086;-87
2021/12/04 17:21:15;;;;;;;4.72;3.20;;;9.00;77.10;;;;;;5055090;28;20032;-89
2021/12/04 17:23:44;;;;;;;4.45;3.13;;;9.00;77.10;;;;;;5036762;28;20021;-90
2021/12/04 17:26:25;;;;;;;;;;;;;;;;;;;;;
2021/12/04 17:28:55;;;;;;;5.22;3.33;;;9.00;77.10;;;;;;5038414;28;20056;-90
2021/12/04 17:31:25;;;;;;;4.88;3.15;;;9.00;77.10;;;;;;5036082;28;20033;-89
2021/12/04 17:33:55;;;;;;;5.38;3.42;;;9.00;77.10;;;;;;5052500;28;20139;-88
2021/12/04 17:36:24;;;;;;;5.03;3.35;;;9.00;77.10;;;;;;5053226;28;20043;-88
2021/12/04 17:38:53;;;;;;;4.43;3.20;;;9.00;77.10;;;;;;5036598;28;20045;-87
2021/12/04 17:41:33;;;;;;;4.75;2.90;;;8.90;77.00;;;;;;5052682;28;20033;-89
2021/12/04 17:44:03;;;;;;;5.07;3.03;;;9.00;77.20;;;;;;5036929;28;20048;-88